createdAt,value
2018-06-27T00:01:16.416Z,58.63
2018-06-27T00:03:45.570Z,58.75
2018-06-27T00:06:15.258Z,59.25
2018-06-27T00:08:44.655Z,59.52
2018-06-27T00:11:14.150Z,59.61
2018-06-27T00:13:44.401Z,59.56
2018-06-27T00:16:14.048Z,60.66
2018-06-27T00:18:42.828Z,59.74
2018-06-27T00:21:12.614Z,60.80
2018-06-27T00:23:41.404Z,60.32
2018-06-27T00:26:10.165Z,60.33
2018-06-27T00:28:39.839Z,60.80
2018-06-27T00:31:08.581Z,60.43
2018-06-27T00:33:37.348Z,60.30
2018-06-27T00:36:06.207Z,61.08
2018-06-27T00:38:34.994Z,61.17
2018-06-27T00:41:03.999Z,61.46
2018-06-27T00:43:32.969Z,60.48
2018-06-27T00:46:01.789Z,61.66
2018-06-27T00:48:30.536Z,61.38
2018-06-27T00:50:59.635Z,60.88
2018-06-27T00:53:34.694Z,61.87
2018-06-27T00:56:04.640Z,62.33
2018-06-27T00:58:33.350Z,60.70
2018-06-27T01:01:02.117Z,61.76
2018-06-27T01:03:30.924Z,62.27
2018-06-27T01:06:00.527Z,62.86
2018-06-27T01:08:30.061Z,62.22
2018-06-27T01:10:59.548Z,62.75
2018-06-27T01:13:28.327Z,63.58
2018-06-27T01:15:57.898Z,63.48
2018-06-27T01:18:26.694Z,62.77
2018-06-27T01:20:55.436Z,62.75
2018-06-27T01:23:24.592Z,63.17
2018-06-27T01:25:53.383Z,63.08
2018-06-27T01:28:23.623Z,62.90
2018-06-27T01:30:52.781Z,63.29
2018-06-27T01:33:22.167Z,63.55
2018-06-27T01:35:51.160Z,64.26
2018-06-27T01:38:20.928Z,63.47
2018-06-27T01:40:51.031Z,63.84
2018-06-27T01:43:20.035Z,63.91
2018-06-27T01:45:48.794Z,64.46
2018-06-27T01:48:17.667Z,64.99
2018-06-27T01:50:47.302Z,65.58
2018-06-27T01:53:16.061Z,65.17
2018-06-27T01:55:45.492Z,65.04
2018-06-27T01:58:15.111Z,64.69
2018-06-27T02:00:43.864Z,65.61
2018-06-27T02:03:12.679Z,65.65
2018-06-27T02:05:42.308Z,65.41
2018-06-27T02:08:11.095Z,65.96
2018-06-27T02:10:40.646Z,65.67
2018-06-27T02:13:10.323Z,66.32
2018-06-27T02:15:40.413Z,66.30
2018-06-27T02:18:09.206Z,65.96
2018-06-27T02:20:37.982Z,66.39
2018-06-27T02:23:09.086Z,65.81
2018-06-27T02:25:38.196Z,66.12
2018-06-27T02:28:08.431Z,66.13
2018-06-27T02:30:37.243Z,65.47
2018-06-27T02:33:06.027Z,66.29
2018-06-27T02:35:34.859Z,66.46
2018-06-27T02:38:03.639Z,66.47
2018-06-27T02:40:33.097Z,65.85
2018-06-27T02:43:01.848Z,66.04
2018-06-27T02:45:30.618Z,66.05
2018-06-27T02:48:00.430Z,66.13
2018-06-27T02:50:29.194Z,65.83
2018-06-27T02:52:58.173Z,66.31
2018-06-27T02:55:27.805Z,65.08
2018-06-27T02:57:56.558Z,62.56
2018-06-27T03:00:25.374Z,60.41
2018-06-27T03:02:54.649Z,58.35
2018-06-27T03:05:24.366Z,55.84
2018-06-27T03:07:54.816Z,53.95
2018-06-27T03:10:24.634Z,51.95
2018-06-27T03:12:53.580Z,50.93
2018-06-27T03:15:23.238Z,50.14
2018-06-27T03:17:53.268Z,48.81
2018-06-27T03:20:22.307Z,48.96
2018-06-27T03:22:51.591Z,47.56
2018-06-27T03:25:20.495Z,47.51
2018-06-27T03:27:50.268Z,45.98
2018-06-27T03:30:19.064Z,45.69
2018-06-27T03:32:47.938Z,44.90
2018-06-27T03:35:16.770Z,42.35
2018-06-27T03:37:45.519Z,43.19
2018-06-27T03:40:15.052Z,44.89
2018-06-27T03:42:43.827Z,45.70
2018-06-27T03:45:12.658Z,46.07
2018-06-27T03:47:42.318Z,47.50
2018-06-27T03:50:11.110Z,48.82
2018-06-27T03:52:45.512Z,51.14
2018-06-27T03:55:15.160Z,52.22
2018-06-27T03:57:44.317Z,53.18
2018-06-27T04:00:13.073Z,53.66
2018-06-27T04:02:41.914Z,53.65
2018-06-27T04:05:11.189Z,54.45
2018-06-27T04:07:40.887Z,53.43
2018-06-27T04:10:11.635Z,53.28
2018-06-27T04:12:41.214Z,53.37
2018-06-27T04:15:10.644Z,52.63
2018-06-27T04:17:39.930Z,50.94
2018-06-27T04:20:08.842Z,50.40
2018-06-27T04:22:37.585Z,50.42
2018-06-27T04:25:06.413Z,51.00
2018-06-27T04:27:36.171Z,50.84
2018-06-27T04:30:05.379Z,50.96
2018-06-27T04:32:34.183Z,52.22
2018-06-27T04:35:02.990Z,52.79
2018-06-27T04:37:32.024Z,52.89
2018-06-27T04:40:01.476Z,53.84
2018-06-27T04:42:30.394Z,54.17
2018-06-27T04:45:00.173Z,53.65
2018-06-27T04:47:28.936Z,54.56
2018-06-27T04:49:58.775Z,54.97
2018-06-27T04:52:27.592Z,55.75
2018-06-27T04:54:56.396Z,55.28
2018-06-27T04:57:26.287Z,54.85
2018-06-27T04:59:55.119Z,55.66
2018-06-27T05:02:23.876Z,55.65
2018-06-27T05:04:52.900Z,56.74
2018-06-27T05:07:23.608Z,56.42
2018-06-27T05:09:53.398Z,56.53
2018-06-27T05:12:23.023Z,56.63
2018-06-27T05:14:53.172Z,55.64
2018-06-27T05:17:23.011Z,55.69
2018-06-27T05:19:52.010Z,55.74
2018-06-27T05:22:20.954Z,56.07
2018-06-27T05:24:49.871Z,56.41
2018-06-27T05:27:19.234Z,55.69
2018-06-27T05:29:48.866Z,57.08
2018-06-27T05:32:17.774Z,57.29
2018-06-27T05:34:46.571Z,56.86
2018-06-27T05:37:15.357Z,56.56
2018-06-27T05:39:44.890Z,55.43
2018-06-27T05:42:14.327Z,54.99
2018-06-27T05:44:43.112Z,55.95
2018-06-27T05:47:11.865Z,54.63
2018-06-27T05:49:40.694Z,55.82
2018-06-27T05:52:09.534Z,55.79
2018-06-27T05:54:39.079Z,54.65
2018-06-27T05:57:08.986Z,54.69
2018-06-27T05:59:37.807Z,54.49
2018-06-27T06:02:06.738Z,54.73
2018-06-27T06:04:35.534Z,54.13
2018-06-27T06:07:04.904Z,55.02
2018-06-27T06:09:34.433Z,54.27
2018-06-27T06:12:03.834Z,54.14
2018-06-27T06:14:33.566Z,53.09
2018-06-27T06:17:03.278Z,54.80
2018-06-27T06:19:32.041Z,52.41
2018-06-27T06:22:00.855Z,52.29
2018-06-27T06:24:29.721Z,52.39
2018-06-27T06:26:58.459Z,52.65
2018-06-27T06:29:27.882Z,53.00
2018-06-27T06:31:56.655Z,52.43
2018-06-27T06:34:25.517Z,51.93
2018-06-27T06:36:54.347Z,52.01
2018-06-27T06:39:23.797Z,52.35
2018-06-27T06:41:53.556Z,52.54
2018-06-27T06:44:22.633Z,53.62
2018-06-27T06:46:52.027Z,51.97
2018-06-27T06:49:21.227Z,51.69
2018-06-27T06:51:51.065Z,51.12
2018-06-27T06:54:20.073Z,50.68
2018-06-27T06:56:49.791Z,50.72
2018-06-27T06:59:18.631Z,50.47
2018-06-27T07:01:47.464Z,52.10
2018-06-27T07:04:16.242Z,51.33
2018-06-27T07:06:45.850Z,51.20
2018-06-27T07:09:15.742Z,49.47
2018-06-27T07:11:45.227Z,49.26
2018-06-27T07:14:14.705Z,49.20
2018-06-27T07:16:44.326Z,49.39
2018-06-27T07:19:13.087Z,49.00
2018-06-27T07:21:41.893Z,49.19
2018-06-27T07:24:10.726Z,49.34
2018-06-27T07:26:39.488Z,48.39
2018-06-27T07:29:08.984Z,48.55
2018-06-27T07:31:37.786Z,46.73
2018-06-27T07:34:06.604Z,47.49
2018-06-27T07:36:36.535Z,47.18
2018-06-27T07:39:08.219Z,46.96
2018-06-27T07:41:37.995Z,44.78
2018-06-27T07:44:06.870Z,45.58
2018-06-27T07:46:35.683Z,45.58
2018-06-27T07:49:04.499Z,44.71
2018-06-27T07:51:33.347Z,44.67
2018-06-27T07:54:02.252Z,44.77
2018-06-27T07:56:32.074Z,43.95
2018-06-27T07:59:01.230Z,42.31
2018-06-27T08:01:30.024Z,43.59
2018-06-27T08:03:58.823Z,42.83
2018-06-27T08:06:32.319Z,41.70
2018-06-27T08:09:01.768Z,42.96
2018-06-27T08:11:31.072Z,41.93
2018-06-27T08:14:00.582Z,41.37
2018-06-27T08:16:29.867Z,41.33
2018-06-27T08:18:58.690Z,38.97
2018-06-27T08:21:27.471Z,39.98
2018-06-27T08:23:56.255Z,39.92
2018-06-27T08:26:25.226Z,39.72
2018-06-27T08:28:54.707Z,42.34
2018-06-27T08:31:24.059Z,41.04
2018-06-27T08:33:54.308Z,42.32
2018-06-27T08:36:23.769Z,41.59
2018-06-27T08:38:53.630Z,42.07
2018-06-27T08:41:23.288Z,40.46
2018-06-27T08:43:53.131Z,40.21
2018-06-27T08:46:24.067Z,39.67
2018-06-27T08:48:53.054Z,39.67
2018-06-27T08:51:22.970Z,39.71
2018-06-27T08:53:52.239Z,40.12
2018-06-27T08:56:22.866Z,38.17
2018-06-27T08:58:51.876Z,40.47
2018-06-27T09:01:22.007Z,39.23
2018-06-27T09:03:52.015Z,37.71
2018-06-27T09:06:22.342Z,37.53
2018-06-27T09:08:52.175Z,37.86
2018-06-27T09:11:22.889Z,36.87
2018-06-27T09:13:53.811Z,37.02
2018-06-27T09:16:24.168Z,36.56
2018-06-27T09:18:54.012Z,36.27
2018-06-27T09:21:23.058Z,36.40
2018-06-27T09:23:52.917Z,35.82
2018-06-27T09:26:22.470Z,37.10
2018-06-27T09:28:51.482Z,37.91
2018-06-27T09:31:22.686Z,36.08
2018-06-27T09:33:52.016Z,37.60
2018-06-27T09:36:20.863Z,36.90
2018-06-27T09:38:49.829Z,35.86
2018-06-27T09:41:19.290Z,36.09
2018-06-27T09:43:48.450Z,36.37
2018-06-27T09:46:17.242Z,35.45
2018-06-27T09:48:46.148Z,35.19
2018-06-27T09:51:15.096Z,36.04
2018-06-27T09:53:44.173Z,35.18
2018-06-27T09:56:13.739Z,36.86
2018-06-27T09:58:42.561Z,36.13
2018-06-27T10:01:11.311Z,35.44
2018-06-27T10:03:41.176Z,35.23
2018-06-27T10:06:10.583Z,34.26
2018-06-27T10:08:39.986Z,34.60
2018-06-27T10:11:09.683Z,35.86
2018-06-27T10:13:40.626Z,35.75
2018-06-27T10:16:10.123Z,35.71
2018-06-27T10:18:38.946Z,35.67
2018-06-27T10:21:07.722Z,36.71
2018-06-27T10:23:37.103Z,35.39
2018-06-27T10:26:06.063Z,34.26
2018-06-27T10:28:37.102Z,35.66
2018-06-27T10:31:05.932Z,35.49
2018-06-27T10:33:36.248Z,34.56
2018-06-27T10:36:05.226Z,34.26
2018-06-27T10:38:34.054Z,36.83
2018-06-27T10:41:03.471Z,35.59
2018-06-27T10:43:32.275Z,35.41
2018-06-27T10:46:01.070Z,35.50
2018-06-27T10:48:29.910Z,34.95
2018-06-27T10:50:58.699Z,34.45
2018-06-27T10:53:27.530Z,34.02
2018-06-27T10:55:57.011Z,35.75
2018-06-27T10:58:25.796Z,33.85
2018-06-27T11:00:54.548Z,34.27
2018-06-27T11:03:24.363Z,33.86
2018-06-27T11:05:54.139Z,34.08
2018-06-27T11:08:23.934Z,34.43
2018-06-27T11:10:53.937Z,35.62
2018-06-27T11:13:24.288Z,35.23
2018-06-27T11:15:53.994Z,35.82
2018-06-27T11:18:23.144Z,36.27
2018-06-27T11:20:52.123Z,35.73
2018-06-27T11:23:21.140Z,35.35
2018-06-27T11:25:49.951Z,34.87
2018-06-27T11:28:19.509Z,36.22
2018-06-27T11:30:48.267Z,36.48
2018-06-27T11:33:17.084Z,36.09
2018-06-27T11:35:45.895Z,35.63
2018-06-27T11:38:14.643Z,33.65
2018-06-27T11:40:44.043Z,34.36
2018-06-27T11:43:14.243Z,35.28
2018-06-27T11:45:42.943Z,35.52
2018-06-27T11:48:11.739Z,34.75
2018-06-27T11:50:40.500Z,35.34
2018-06-27T11:53:09.727Z,34.06
2018-06-27T11:55:39.542Z,33.31
2018-06-27T11:58:08.422Z,33.57
2018-06-27T12:00:37.191Z,33.90
2018-06-27T12:03:06.894Z,33.94
2018-06-27T12:05:36.389Z,32.75
2018-06-27T12:08:05.170Z,33.14
2018-06-27T12:10:34.477Z,32.89
2018-06-27T12:13:03.501Z,33.62
2018-06-27T12:15:33.067Z,33.01
2018-06-27T12:18:01.836Z,32.98
2018-06-27T12:20:30.567Z,32.24
2018-06-27T12:22:59.462Z,31.80
2018-06-27T12:25:29.036Z,32.60
2018-06-27T12:27:57.855Z,33.23
2018-06-27T12:30:26.609Z,32.67
2018-06-27T12:32:55.570Z,32.44
2018-06-27T12:35:24.669Z,32.17
2018-06-27T12:37:54.307Z,32.73
2018-06-27T12:40:24.431Z,33.44
2018-06-27T12:42:54.305Z,32.69
2018-06-27T12:45:23.322Z,32.92
2018-06-27T12:47:52.336Z,32.49
2018-06-27T12:50:21.151Z,32.26
2018-06-27T12:52:49.939Z,32.85
2018-06-27T12:55:19.494Z,31.99
2018-06-27T12:57:48.251Z,32.63
2018-06-27T13:00:16.996Z,32.34
2018-06-27T13:02:46.595Z,31.53
2018-06-27T13:05:17.138Z,31.42
2018-06-27T13:07:45.870Z,32.81
2018-06-27T13:10:15.648Z,31.99
2018-06-27T13:12:44.389Z,32.52
2018-06-27T13:15:14.030Z,31.59
2018-06-27T13:17:43.849Z,30.95
2018-06-27T13:20:12.626Z,30.10
2018-06-27T13:22:42.006Z,31.08
2018-06-27T13:25:10.748Z,31.14
2018-06-27T13:28:42.603Z,30.52
2018-06-27T13:31:11.342Z,31.98
2018-06-27T13:33:40.189Z,31.39
2018-06-27T13:36:09.050Z,31.85
2018-06-27T13:38:37.911Z,30.51
2018-06-27T13:41:07.467Z,30.81
2018-06-27T13:43:36.344Z,32.04
2018-06-27T13:46:05.329Z,30.43
2018-06-27T13:48:34.378Z,30.69
2018-06-27T13:51:03.124Z,29.85
2018-06-27T13:53:32.083Z,30.15
2018-06-27T13:56:01.718Z,29.84
2018-06-27T13:58:30.524Z,30.51
2018-06-27T14:00:59.313Z,32.15
2018-06-27T14:03:28.978Z,30.28
2018-06-27T14:05:58.311Z,31.17
2018-06-27T14:08:27.687Z,29.82
2018-06-27T14:10:57.001Z,31.37
2018-06-27T14:13:26.419Z,30.42
2018-06-27T14:15:56.212Z,30.25
2018-06-27T14:18:25.364Z,30.84
2018-06-27T14:20:55.120Z,30.39
2018-06-27T14:23:24.191Z,31.61
2018-06-27T14:25:53.185Z,32.34
2018-06-27T14:28:22.001Z,30.51
2018-06-27T14:30:50.851Z,31.40
2018-06-27T14:33:19.752Z,29.81
2018-06-27T14:35:48.547Z,29.73
2018-06-27T14:38:17.295Z,29.78
2018-06-27T14:40:47.363Z,29.64
2018-06-27T14:43:16.831Z,30.32
2018-06-27T14:45:45.582Z,29.69
2018-06-27T14:48:14.428Z,28.89
2018-06-27T14:50:43.672Z,30.48
2018-06-27T14:53:12.421Z,29.52
2018-06-27T14:55:41.990Z,30.06
2018-06-27T14:58:10.887Z,30.11
2018-06-27T15:00:40.092Z,29.32
2018-06-27T15:03:09.620Z,29.25
2018-06-27T15:05:39.222Z,30.09
2018-06-27T15:08:09.038Z,29.03
2018-06-27T15:10:38.525Z,30.30
2018-06-27T15:13:07.272Z,30.10
2018-06-27T15:15:36.974Z,30.05
2018-06-27T15:18:06.554Z,30.24
2018-06-27T15:20:35.651Z,28.90
2018-06-27T15:23:04.455Z,29.71
2018-06-27T15:25:33.300Z,30.18
2018-06-27T15:28:02.071Z,30.11
2018-06-27T15:30:30.892Z,29.07
2018-06-27T15:32:59.682Z,27.43
2018-06-27T15:35:28.553Z,27.71
2018-06-27T15:37:57.292Z,26.24
2018-06-27T15:40:27.251Z,26.11
2018-06-27T15:42:56.864Z,24.44
2018-06-27T15:45:25.850Z,23.61
2018-06-27T15:47:55.742Z,23.71
2018-06-27T15:50:25.088Z,23.31
2018-06-27T15:52:54.258Z,23.55
2018-06-27T15:55:23.927Z,22.09
2018-06-27T15:57:53.206Z,21.91
2018-06-27T16:00:22.140Z,20.90
2018-06-27T16:02:51.491Z,20.95
2018-06-27T16:05:21.343Z,21.21
2018-06-27T16:07:50.109Z,20.88
2018-06-27T16:10:19.733Z,20.67
2018-06-27T16:12:48.510Z,20.77
2018-06-27T16:15:17.958Z,21.46
2018-06-27T16:17:47.279Z,20.43
2018-06-27T16:20:16.030Z,19.78
2018-06-27T16:22:44.833Z,20.00
2018-06-27T16:25:13.652Z,19.37
2018-06-27T16:27:42.467Z,18.60
2018-06-27T16:30:11.336Z,19.24
2018-06-27T16:32:40.198Z,18.65
2018-06-27T16:35:08.992Z,19.09
2018-06-27T16:37:37.778Z,18.98
2018-06-27T16:40:07.785Z,18.35
2018-06-27T16:42:37.052Z,18.25
2018-06-27T16:45:06.239Z,18.73
2018-06-27T16:47:35.015Z,18.28
2018-06-27T16:50:04.011Z,17.59
2018-06-27T16:52:32.863Z,18.17
2018-06-27T16:55:02.292Z,17.21
2018-06-27T16:57:31.823Z,17.64
2018-06-27T17:00:00.650Z,17.29
2018-06-27T17:02:30.268Z,18.31
2018-06-27T17:04:59.634Z,17.52
2018-06-27T17:07:28.747Z,17.48
2018-06-27T17:09:58.618Z,17.34
2018-06-27T17:12:28.142Z,17.91
2018-06-27T17:14:57.502Z,17.44
2018-06-27T17:17:26.925Z,18.54
2018-06-27T17:19:55.755Z,17.69
2018-06-27T17:22:24.902Z,18.42
2018-06-27T17:24:54.297Z,17.75
2018-06-27T17:27:23.259Z,18.42
2018-06-27T17:29:52.525Z,18.64
2018-06-27T17:32:21.431Z,18.27
2018-06-27T17:34:50.252Z,18.78
2018-06-27T17:37:19.023Z,18.91
2018-06-27T17:39:48.666Z,18.82
2018-06-27T17:42:18.102Z,18.45
2018-06-27T17:44:46.923Z,18.20
2018-06-27T17:47:15.639Z,18.33
2018-06-27T17:49:44.439Z,18.90
2018-06-27T17:52:13.216Z,18.44
2018-06-27T17:54:42.180Z,18.95
2018-06-27T17:57:12.152Z,19.32
2018-06-27T17:59:41.706Z,19.56
2018-06-27T18:02:11.338Z,19.71
2018-06-27T18:04:40.106Z,19.71
2018-06-27T18:07:09.470Z,19.80
2018-06-27T18:09:38.962Z,19.43
2018-06-27T18:12:07.795Z,19.87
2018-06-27T18:14:37.341Z,20.36
2018-06-27T18:17:06.710Z,19.35
2018-06-27T18:19:35.503Z,19.41
2018-06-27T18:22:04.338Z,19.82
2018-06-27T18:24:33.427Z,20.14
2018-06-27T18:27:02.200Z,19.56
2018-06-27T18:29:31.305Z,20.41
2018-06-27T18:32:00.148Z,20.13
2018-06-27T18:34:29.667Z,20.52
2018-06-27T18:36:58.481Z,21.22
2018-06-27T18:39:28.224Z,20.92
2018-06-27T18:41:57.563Z,21.46
2018-06-27T18:44:26.399Z,22.01
2018-06-27T18:46:55.344Z,22.94
2018-06-27T18:49:24.752Z,23.94
2018-06-27T18:51:53.773Z,24.10
2018-06-27T18:54:22.929Z,25.20
2018-06-27T18:56:54.002Z,25.40
2018-06-27T18:59:23.342Z,27.12
2018-06-27T19:01:53.228Z,27.54
2018-06-27T19:04:22.455Z,28.03
2018-06-27T19:06:52.607Z,28.12
2018-06-27T19:09:22.487Z,29.52
2018-06-27T19:11:51.526Z,29.62
2018-06-27T19:14:20.808Z,29.81
2018-06-27T19:16:50.357Z,30.75
2018-06-27T19:19:19.157Z,30.76
2018-06-27T19:21:47.963Z,31.63
2018-06-27T19:24:16.834Z,32.18
2018-06-27T19:26:45.655Z,31.85
2018-06-27T19:29:14.658Z,32.87
2018-06-27T19:31:43.501Z,32.14
2018-06-27T19:34:12.268Z,33.38
2018-06-27T19:36:41.023Z,33.78
2018-06-27T19:39:11.653Z,33.68
2018-06-27T19:41:41.354Z,33.53
2018-06-27T19:44:10.665Z,33.83
2018-06-27T19:46:39.554Z,34.81
2018-06-27T19:49:08.397Z,35.57
2018-06-27T19:51:37.269Z,36.25
2018-06-27T19:54:06.214Z,35.13
2018-06-27T19:56:36.055Z,36.72
2018-06-27T19:59:05.051Z,37.05
2018-06-27T20:01:35.015Z,38.01
2018-06-27T20:04:03.816Z,37.88
2018-06-27T20:06:33.743Z,37.39
2018-06-27T20:09:03.468Z,37.60
2018-06-27T20:11:33.440Z,38.18
2018-06-27T20:14:03.172Z,38.05
2018-06-27T20:16:32.997Z,37.54
2018-06-27T20:19:01.746Z,37.45
2018-06-27T20:21:30.508Z,36.88
2018-06-27T20:23:59.271Z,36.09
2018-06-27T20:26:28.539Z,36.19
2018-06-27T20:28:57.449Z,35.68
2018-06-27T20:31:26.326Z,36.61
2018-06-27T20:33:55.243Z,36.62
2018-06-27T20:36:24.834Z,36.01
2018-06-27T20:38:53.832Z,36.29
2018-06-27T20:41:23.649Z,36.61
2018-06-27T20:43:52.708Z,35.38
2018-06-27T20:46:21.757Z,36.60
2018-06-27T20:48:50.624Z,35.71
2018-06-27T20:51:19.736Z,35.76
2018-06-27T20:53:50.000Z,35.91
2018-06-27T20:56:34.123Z,36.88
2018-06-27T20:59:02.939Z,37.19
2018-06-27T21:01:32.519Z,36.61
2018-06-27T21:04:02.202Z,37.14
2018-06-27T21:06:32.052Z,37.12
2018-06-27T21:09:01.952Z,36.65
2018-06-27T21:11:31.784Z,36.89
2018-06-27T21:14:01.439Z,36.72
2018-06-27T21:16:30.753Z,36.56
2018-06-27T21:18:59.568Z,37.60
2018-06-27T21:21:28.458Z,37.28
2018-06-27T21:23:57.232Z,39.04
2018-06-27T21:26:26.508Z,39.97
2018-06-27T21:28:55.821Z,39.53
2018-06-27T21:31:24.795Z,39.54
2018-06-27T21:33:53.816Z,38.62
2018-06-27T21:36:22.750Z,39.54
2018-06-27T21:38:51.700Z,41.11
2018-06-27T21:41:21.424Z,39.01
2018-06-27T21:43:50.246Z,39.96
2018-06-27T21:46:19.050Z,41.85
2018-06-27T21:48:47.921Z,43.20
2018-06-27T21:51:16.669Z,42.57
2018-06-27T21:53:45.780Z,42.24
2018-06-27T21:56:15.408Z,43.12
2018-06-27T21:58:44.151Z,41.83
2018-06-27T22:01:14.418Z,43.07
2018-06-27T22:03:44.285Z,44.36
2018-06-27T22:06:14.364Z,42.74
2018-06-27T22:08:43.917Z,44.26
2018-06-27T22:11:13.498Z,43.39
2018-06-27T22:13:43.252Z,43.88
2018-06-27T22:16:12.624Z,43.13
2018-06-27T22:18:41.386Z,43.99
2018-06-27T22:21:10.154Z,45.63
2018-06-27T22:23:39.036Z,46.26
2018-06-27T22:26:07.855Z,46.65
2018-06-27T22:28:36.722Z,46.44
2018-06-27T22:31:05.561Z,46.16
2018-06-27T22:33:34.334Z,46.25
2018-06-27T22:36:03.089Z,45.88
2018-06-27T22:38:31.858Z,45.90
2018-06-27T22:41:01.981Z,47.02
2018-06-27T22:43:30.786Z,47.35
2018-06-27T22:45:59.638Z,47.72
2018-06-27T22:48:28.492Z,47.21
2018-06-27T22:50:57.230Z,48.25
2018-06-27T22:53:26.127Z,47.69
2018-06-27T22:55:55.914Z,48.24
2018-06-27T22:58:25.652Z,48.08
2018-06-27T23:00:54.700Z,48.18
2018-06-27T23:03:24.763Z,49.30
2018-06-27T23:05:54.598Z,48.68
2018-06-27T23:08:24.422Z,49.43
2018-06-27T23:10:54.064Z,49.12
2018-06-27T23:13:24.002Z,48.67
2018-06-27T23:15:53.610Z,48.83
2018-06-27T23:18:22.603Z,48.86
2018-06-27T23:20:51.348Z,49.73
2018-06-27T23:23:20.138Z,50.02
2018-06-27T23:25:48.887Z,50.38
2018-06-27T23:28:17.918Z,50.92
2018-06-27T23:30:46.691Z,50.55
2018-06-27T23:33:15.482Z,51.26
2018-06-27T23:35:44.246Z,51.01
2018-06-27T23:38:13.058Z,51.22
2018-06-27T23:40:42.639Z,52.44
2018-06-27T23:43:11.430Z,52.23
2018-06-27T23:45:40.187Z,52.40
2018-06-27T23:48:09.015Z,52.86
2018-06-27T23:50:37.794Z,52.51
2018-06-27T23:53:06.720Z,51.80
2018-06-27T23:55:36.466Z,52.27
2018-06-27T23:58:06.277Z,53.29
